Time;durP1;ratioP1;P1;durP2;ratioP2;P2;SDS_P1;SDS_P2;PMS_P1;PMS_P2;Temp;Humidity;BMP_temperature;BMP_pressure;BME280_temperature;BME280_humidity;BME280_pressure;Samples;Min_cycle;Max_cycle;Signal;HPM_P1;HPM_P2
2021/12/26 00:00:34;;;;;;;8.98;5.70;;;3.10;99.90;;;;;;5052064;28;20203;-89
2021/12/26 00:03:00;;;;;;;8.18;4.95;;;3.10;99.90;;;;;;5036284;28;20193;-92
2021/12/26 00:05:27;;;;;;;6.68;3.95;;;3.10;99.90;;;;;;5051535;28;20238;-88
2021/12/26 00:07:53;;;;;;;6.30;4.85;;;3.10;99.90;;;;;;5051573;28;20183;-88
2021/12/26 00:10:21;;;;;;;5.40;4.40;;;3.10;99.90;;;;;;5018519;28;20244;-91
2021/12/26 00:12:47;;;;;;;6.20;4.68;;;3.00;99.90;;;;;;5018384;28;20185;-92
2021/12/26 00:15:14;;;;;;;7.10;5.05;;;3.00;99.90;;;;;;5036164;28;20216;-89
2021/12/26 00:17:40;;;;;;;5.85;5.22;;;3.00;99.90;;;;;;5051509;28;20646;-89
2021/12/26 00:20:08;;;;;;;5.40;3.87;;;3.00;99.90;;;;;;5036070;28;20202;-91
2021/12/26 00:22:34;;;;;;;7.28;4.88;;;3.00;99.90;;;;;;5019006;28;20401;-89
2021/12/26 00:25:01;;;;;;;6.82;4.38;;;3.00;99.90;;;;;;5045763;28;20550;-89
2021/12/26 00:27:27;;;;;;;4.60;4.20;;;2.90;99.90;;;;;;5035167;28;20183;-91
2021/12/26 00:29:53;;;;;;;11.30;5.90;;;2.90;99.90;;;;;;5051121;28;20206;-92
2021/12/26 00:32:19;;;;;;;10.50;5.37;;;2.90;99.90;;;;;;5018036;28;20792;-87
2021/12/26 00:34:45;;;;;;;9.05;5.15;;;2.90;99.90;;;;;;5050961;28;20221;-91
2021/12/26 00:37:12;;;;;;;9.30;5.60;;;2.90;99.90;;;;;;5051089;28;20644;-89
2021/12/26 00:39:38;;;;;;;8.02;5.30;;;2.90;99.90;;;;;;5050959;28;20382;-89
2021/12/26 00:42:04;;;;;;;6.20;4.30;;;2.90;99.90;;;;;;5054539;28;20221;-89
2021/12/26 00:44:30;;;;;;;6.95;4.80;;;2.80;99.90;;;;;;5035863;28;20249;-92
2021/12/26 00:46:55;;;;;;;8.03;4.90;;;2.80;99.90;;;;;;5020846;28;20221;-91
2021/12/26 00:49:22;;;;;;;8.23;5.00;;;2.80;99.90;;;;;;5050882;28;20277;-89
2021/12/26 00:51:48;;;;;;;6.40;4.65;;;2.80;99.90;;;;;;5050757;28;20562;-89
2021/12/26 00:54:14;;;;;;;9.75;6.05;;;2.80;99.90;;;;;;5017617;28;20194;-88
2021/12/26 00:56:40;;;;;;;9.17;5.70;;;2.70;99.90;;;;;;5050321;28;20633;-92
2021/12/26 00:59:06;;;;;;;9.70;6.33;;;2.70;99.90;;;;;;5050856;28;20652;-89
2021/12/26 01:01:31;;;;;;;9.07;6.33;;;2.60;99.90;;;;;;5035745;28;20213;-88
2021/12/26 01:03:57;;;;;;;10.00;6.07;;;2.60;99.90;;;;;;5035193;28;20404;-88
2021/12/26 01:06:24;;;;;;;10.17;6.40;;;2.60;99.90;;;;;;5050490;28;20230;-89
2021/12/26 01:08:51;;;;;;;8.23;6.20;;;2.60;99.90;;;;;;5050448;28;20640;-89
2021/12/26 01:11:33;;;;;;;9.65;7.00;;;2.60;99.90;;;;;;5050341;28;20683;-91
2021/12/26 01:13:59;;;;;;;10.30;6.43;;;2.60;99.90;;;;;;5050986;28;20175;-88
2021/12/26 01:16:27;;;;;;;10.98;6.10;;;2.60;99.90;;;;;;5062586;28;20211;-90
2021/12/26 01:18:59;;;;;;;9.05;5.43;;;2.60;99.90;;;;;;5067875;28;20269;-91
2021/12/26 01:21:26;;;;;;;9.52;6.30;;;2.60;99.90;;;;;;5064658;28;20277;-90
2021/12/26 01:24:03;;;;;;;9.13;6.20;;;2.60;99.90;;;;;;5059598;28;20232;-92
2021/12/26 01:26:29;;;;;;;9.13;6.55;;;2.70;99.90;;;;;;5034971;28;20194;-88
2021/12/26 01:28:55;;;;;;;13.77;6.60;;;2.60;99.90;;;;;;5034750;28;20194;-92
2021/12/26 01:31:22;;;;;;;12.30;7.35;;;2.60;99.90;;;;;;5050480;28;20328;-89
2021/12/26 01:34:00;;;;;;;11.75;7.13;;;2.60;99.90;;;;;;5049894;28;20521;-89
2021/12/26 01:36:27;;;;;;;9.43;6.15;;;2.60;99.90;;;;;;5054503;28;20226;-88
2021/12/26 01:38:56;;;;;;;12.43;6.97;;;2.50;99.90;;;;;;5052213;28;20171;-92
2021/12/26 01:41:21;;;;;;;10.73;7.03;;;2.50;99.90;;;;;;5050685;28;20735;-89
2021/12/26 01:43:48;;;;;;;13.33;8.30;;;2.50;99.90;;;;;;5052906;28;20201;-91
2021/12/26 01:46:17;;;;;;;9.20;6.15;;;2.50;99.90;;;;;;5051400;28;20203;-92
2021/12/26 01:48:42;;;;;;;12.40;8.18;;;2.50;99.90;;;;;;5050251;28;20713;-92
2021/12/26 01:51:08;;;;;;;10.93;6.50;;;2.50;99.90;;;;;;5049879;28;20234;-92
2021/12/26 01:53:39;;;;;;;5.50;3.50;;;2.50;99.90;;;;;;5049895;28;20412;-89
2021/12/26 01:56:12;;;;;;;6.85;5.55;;;2.50;99.90;;;;;;5034570;28;20228;-92
2021/12/26 01:58:39;;;;;;;6.95;5.68;;;2.50;99.90;;;;;;5049830;28;20178;-88
2021/12/26 02:01:14;;;;;;;10.52;7.50;;;2.50;99.90;;;;;;5050096;28;20205;-88
2021/12/26 02:03:41;;;;;;;10.27;6.30;;;2.40;99.90;;;;;;5052828;28;20201;-89
2021/12/26 02:06:08;;;;;;;11.88;7.28;;;2.40;99.90;;;;;;5051225;28;20610;-92
2021/12/26 02:08:35;;;;;;;8.82;6.50;;;2.40;99.90;;;;;;5050081;28;20209;-90
2021/12/26 02:11:02;;;;;;;9.43;7.10;;;2.40;99.90;;;;;;5049526;28;20202;-92
2021/12/26 02:13:29;;;;;;;6.50;4.40;;;2.40;99.90;;;;;;5049512;28;20187;-89
2021/12/26 02:15:56;;;;;;;7.57;6.13;;;2.40;99.90;;;;;;5034482;28;20214;-87
2021/12/26 02:18:22;;;;;;;6.38;5.57;;;2.40;99.90;;;;;;5049699;28;20190;-91
2021/12/26 02:23:20;;;;;;;8.85;7.28;;;2.40;99.90;;;;;;5034445;28;20663;-88
2021/12/26 02:28:13;;;;;;;6.97;5.53;;;2.30;99.90;;;;;;5034976;28;20171;-90
2021/12/26 02:30:39;;;;;;;8.32;5.90;;;2.30;99.90;;;;;;5036086;28;20207;-89
2021/12/26 02:33:08;;;;;;;10.10;5.50;;;2.30;99.90;;;;;;5044385;28;20181;-89
2021/12/26 02:35:34;;;;;;;8.35;5.13;;;2.40;99.90;;;;;;5067451;28;20249;-92
2021/12/26 02:38:01;;;;;;;9.02;5.25;;;2.40;99.90;;;;;;5050239;28;20178;-91
2021/12/26 02:40:27;;;;;;;9.20;6.82;;;2.40;99.90;;;;;;5061214;28;20332;-91
2021/12/26 02:42:53;;;;;;;12.27;7.20;;;2.40;99.90;;;;;;5045962;28;20182;-92
2021/12/26 02:45:19;;;;;;;8.67;6.40;;;2.40;99.90;;;;;;5047792;28;20421;-91
2021/12/26 02:47:47;;;;;;;7.07;4.67;;;2.40;99.90;;;;;;5051801;28;20385;-91
2021/12/26 02:50:31;;;;;;;10.30;7.05;;;2.40;99.90;;;;;;5023483;28;20473;-92
2021/12/26 02:53:00;;;;;;;10.65;7.10;;;2.40;99.90;;;;;;5037840;28;20222;-92
2021/12/26 02:55:27;;;;;;;11.90;7.93;;;2.40;99.90;;;;;;5037263;28;20230;-92
2021/12/26 02:57:59;;;;;;;9.82;6.82;;;2.40;99.90;;;;;;5053003;28;20181;-90
2021/12/26 03:00:29;;;;;;;10.88;6.60;;;2.30;99.90;;;;;;5052761;28;20672;-92
2021/12/26 03:02:57;;;;;;;11.48;4.95;;;2.30;99.90;;;;;;5052840;28;20178;-89
2021/12/26 03:05:27;;;;;;;11.68;4.20;;;2.30;99.90;;;;;;5037398;28;20186;-88
2021/12/26 03:07:53;;;;;;;16.45;7.90;;;2.30;99.90;;;;;;5052841;28;20179;-88
2021/12/26 03:10:22;;;;;;;11.70;6.10;;;2.30;99.90;;;;;;5053027;28;20209;-91
2021/12/26 03:12:50;;;;;;;11.70;6.32;;;2.30;99.90;;;;;;5052617;28;20769;-91
2021/12/26 03:15:15;;;;;;;11.30;6.55;;;2.30;99.90;;;;;;5052422;28;20268;-92
2021/12/26 03:17:41;;;;;;;10.00;5.77;;;2.30;99.90;;;;;;5019503;28;20182;-92
2021/12/26 03:20:12;;;;;;;11.60;5.90;;;2.20;99.90;;;;;;5052482;28;20195;-91
2021/12/26 03:22:38;;;;;;;12.18;7.50;;;2.20;99.90;;;;;;5052744;28;20179;-89
2021/12/26 03:25:09;;;;;;;11.57;7.43;;;2.20;99.90;;;;;;5036838;28;20535;-91
2021/12/26 03:27:35;;;;;;;9.80;6.10;;;2.20;99.90;;;;;;5036942;28;20401;-92
2021/12/26 03:30:01;;;;;;;10.77;6.13;;;2.20;99.90;;;;;;5019697;28;20301;-91
2021/12/26 03:32:26;;;;;;;11.10;6.30;;;2.20;99.90;;;;;;5052435;28;20182;-92
2021/12/26 03:34:52;;;;;;;11.87;5.93;;;2.20;99.90;;;;;;5055031;28;20218;-90
2021/12/26 03:37:18;;;;;;;4.00;3.30;;;2.20;99.90;;;;;;5063537;28;20289;-88
2021/12/26 03:39:44;;;;;;;9.35;5.75;;;2.10;99.90;;;;;;5056106;28;20206;-91
2021/12/26 03:42:11;;;;;;;8.45;6.25;;;2.10;99.90;;;;;;5036660;28;20546;-89
2021/12/26 03:44:37;;;;;;;10.77;5.60;;;2.10;99.90;;;;;;5018865;28;20217;-92
2021/12/26 03:47:03;;;;;;;9.50;5.50;;;2.10;99.90;;;;;;5052046;28;20648;-88
2021/12/26 03:49:29;;;;;;;9.98;6.22;;;2.10;99.90;;;;;;5052072;28;20412;-88
2021/12/26 03:51:55;;;;;;;8.90;4.43;;;2.10;99.90;;;;;;5042297;28;20289;-91
2021/12/26 03:54:20;;;;;;;7.73;4.80;;;2.10;99.90;;;;;;4999111;28;20782;-88
2021/12/26 03:56:46;;;;;;;7.47;4.13;;;2.10;99.90;;;;;;4999438;28;20211;-89
2021/12/26 03:59:12;;;;;;;9.90;3.17;;;2.10;99.90;;;;;;4999224;28;20187;-91
2021/12/26 04:01:37;;;;;;;7.17;4.20;;;2.10;99.90;;;;;;5015750;28;20203;-88
2021/12/26 04:04:04;;;;;;;7.57;3.97;;;2.10;99.90;;;;;;5016389;28;20191;-89
2021/12/26 04:06:30;;;;;;;7.45;4.57;;;2.10;99.90;;;;;;5016579;28;20195;-89
2021/12/26 04:08:56;;;;;;;7.32;4.50;;;2.00;99.90;;;;;;4999021;28;20270;-89
2021/12/26 04:11:22;;;;;;;7.27;4.63;;;2.00;99.90;;;;;;5017725;28;20245;-88
2021/12/26 04:13:48;;;;;;;7.70;4.38;;;2.00;99.90;;;;;;5020024;28;20436;-89
2021/12/26 04:16:14;;;;;;;5.93;4.43;;;2.00;99.90;;;;;;5018632;28;20231;-91
2021/12/26 04:18:40;;;;;;;6.77;4.20;;;2.00;99.90;;;;;;5010896;28;20484;-89
2021/12/26 04:21:06;;;;;;;8.05;4.60;;;2.00;99.90;;;;;;5036236;28;20278;-89
2021/12/26 04:23:33;;;;;;;6.70;4.77;;;2.00;99.90;;;;;;5022790;28;20183;-91
2021/12/26 04:25:59;;;;;;;7.10;4.45;;;2.00;99.90;;;;;;5021222;28;20214;-91
2021/12/26 04:28:25;;;;;;;6.50;4.90;;;2.00;99.90;;;;;;5034430;28;20183;-91
2021/12/26 04:30:50;;;;;;;9.53;5.70;;;2.00;99.90;;;;;;5000915;28;20660;-91
2021/12/26 04:33:16;;;;;;;9.10;5.97;;;2.00;99.90;;;;;;5007036;28;20172;-90
2021/12/26 04:35:42;;;;;;;8.83;4.37;;;2.00;99.90;;;;;;5003260;28;20466;-92
2021/12/26 04:38:08;;;;;;;7.90;4.60;;;2.00;99.90;;;;;;4998398;28;20211;-87
2021/12/26 04:40:33;;;;;;;9.13;4.80;;;2.00;99.90;;;;;;4998355;28;20211;-89
2021/12/26 04:42:59;;;;;;;7.93;4.77;;;2.00;99.90;;;;;;4998211;28;20179;-89
2021/12/26 04:45:26;;;;;;;10.20;5.57;;;2.00;99.90;;;;;;4998506;28;20206;-89
2021/12/26 04:47:51;;;;;;;10.88;5.18;;;1.90;99.90;;;;;;4998246;28;20261;-89
2021/12/26 04:50:20;;;;;;;9.93;5.17;;;2.00;99.90;;;;;;5015944;28;20195;-91
2021/12/26 04:52:47;;;;;;;10.80;5.20;;;2.00;99.90;;;;;;4997914;28;20471;-90
2021/12/26 04:55:15;;;;;;;8.55;4.90;;;2.00;99.90;;;;;;5000481;28;20356;-89
2021/12/26 04:57:41;;;;;;;7.82;5.32;;;2.00;99.90;;;;;;4997973;28;20225;-89
2021/12/26 05:00:11;;;;;;;8.77;5.23;;;1.90;99.90;;;;;;4998056;28;20207;-89
2021/12/26 05:02:38;;;;;;;8.45;4.70;;;1.90;99.90;;;;;;4997923;28;20172;-89
2021/12/26 05:05:06;;;;;;;7.70;5.38;;;1.90;99.90;;;;;;5015655;28;20210;-91
2021/12/26 05:07:32;;;;;;;7.97;4.78;;;1.90;99.90;;;;;;4997808;28;20241;-91
2021/12/26 05:09:58;;;;;;;8.93;4.75;;;1.90;99.90;;;;;;4997713;28;20202;-92
2021/12/26 05:12:24;;;;;;;9.60;5.10;;;1.90;99.90;;;;;;5015334;28;20182;-89
2021/12/26 05:14:50;;;;;;;9.07;5.07;;;1.90;99.90;;;;;;5015041;28;20211;-91
2021/12/26 05:17:16;;;;;;;7.57;4.65;;;1.90;99.90;;;;;;5015391;28;20167;-91
2021/12/26 05:19:42;;;;;;;8.60;5.50;;;1.90;99.90;;;;;;5025295;28;20182;-89
2021/12/26 05:22:08;;;;;;;8.87;5.43;;;1.90;99.90;;;;;;5034885;28;20191;-89
2021/12/26 05:24:34;;;;;;;10.20;4.83;;;1.80;99.90;;;;;;4997781;28;20218;-90
2021/12/26 05:26:59;;;;;;;10.13;6.40;;;1.80;99.90;;;;;;5015490;28;20428;-89
2021/12/26 05:29:25;;;;;;;9.13;5.80;;;1.90;99.90;;;;;;4997275;28;20645;-89
2021/12/26 05:31:52;;;;;;;8.20;5.67;;;1.80;99.90;;;;;;5015348;28;20179;-88
2021/12/26 05:34:18;;;;;;;7.18;4.82;;;1.80;99.90;;;;;;4997349;28;20171;-89
2021/12/26 05:36:44;;;;;;;7.45;5.20;;;1.80;99.90;;;;;;4997582;28;20214;-89
2021/12/26 05:39:11;;;;;;;8.40;5.00;;;1.80;99.90;;;;;;5014913;28;20172;-90
2021/12/26 05:41:38;;;;;;;7.88;5.22;;;1.80;99.90;;;;;;4997509;28;20199;-89
2021/12/26 05:44:05;;;;;;;8.20;5.40;;;1.80;99.90;;;;;;5018310;28;20314;-90
2021/12/26 05:46:31;;;;;;;8.73;5.50;;;1.80;99.90;;;;;;4997944;28;20210;-91
2021/12/26 05:48:59;;;;;;;7.57;4.80;;;1.80;99.90;;;;;;4997577;28;20175;-89
2021/12/26 05:51:25;;;;;;;9.80;5.20;;;1.80;99.90;;;;;;4997611;28;20234;-91
2021/12/26 05:53:51;;;;;;;10.32;6.10;;;1.90;99.90;;;;;;4997456;28;20182;-89
2021/12/26 05:56:17;;;;;;;10.57;5.53;;;1.80;99.90;;;;;;4997903;28;20227;-91
2021/12/26 05:58:42;;;;;;;44.40;14.50;;;1.80;99.90;;;;;;4997300;28;20383;-89
2021/12/26 06:01:08;;;;;;;182.43;41.20;;;1.80;99.90;;;;;;4998047;28;20203;-89
2021/12/26 06:03:34;;;;;;;50.33;19.00;;;1.80;99.90;;;;;;5032813;28;20175;-90
2021/12/26 06:06:00;;;;;;;156.38;44.55;;;1.80;99.90;;;;;;5021603;28;20211;-89
2021/12/26 06:08:26;;;;;;;127.23;45.87;;;1.80;99.90;;;;;;5030290;28;20202;-90
2021/12/26 06:10:52;;;;;;;136.67;53.60;;;1.80;99.90;;;;;;4997177;28;20206;-91
2021/12/26 06:13:17;;;;;;;116.03;52.77;;;1.80;99.90;;;;;;4997296;28;20474;-89
2021/12/26 06:15:43;;;;;;;58.70;29.80;;;1.80;99.90;;;;;;4997194;28;20254;-91
2021/12/26 06:18:09;;;;;;;41.50;27.80;;;1.80;99.90;;;;;;4997443;28;20265;-89
2021/12/26 06:20:35;;;;;;;19.17;13.73;;;1.70;99.90;;;;;;5014687;28;20200;-89
2021/12/26 06:23:01;;;;;;;12.52;10.23;;;1.70;99.90;;;;;;4997330;28;20229;-91
2021/12/26 06:25:26;;;;;;;10.77;6.90;;;1.70;99.90;;;;;;4998886;28;20261;-89
2021/12/26 06:27:52;;;;;;;9.90;5.73;;;1.70;99.90;;;;;;5006183;28;20179;-89
2021/12/26 06:30:18;;;;;;;11.13;6.20;;;1.70;99.90;;;;;;5005062;28;20490;-91
2021/12/26 06:32:44;;;;;;;9.17;5.23;;;1.70;99.90;;;;;;5005516;28;20266;-90
2021/12/26 06:35:10;;;;;;;9.25;5.20;;;1.70;99.90;;;;;;5004453;28;20226;-91
2021/12/26 06:37:37;;;;;;;8.47;4.67;;;1.70;99.90;;;;;;5035319;28;20183;-90
2021/12/26 06:40:03;;;;;;;5.78;4.20;;;1.70;99.90;;;;;;5000724;28;20444;-89
2021/12/26 06:42:31;;;;;;;5.13;3.72;;;1.70;99.90;;;;;;5012201;28;20184;-90
2021/12/26 06:44:56;;;;;;;6.53;4.55;;;1.70;99.90;;;;;;5000676;28;20199;-91
2021/12/26 06:47:23;;;;;;;7.17;4.90;;;1.70;99.90;;;;;;5017986;28;20178;-89
2021/12/26 06:49:49;;;;;;;9.40;5.05;;;1.70;99.90;;;;;;5000655;28;20198;-89
2021/12/26 06:52:15;;;;;;;10.10;4.55;;;1.70;99.90;;;;;;5012441;28;20590;-90
2021/12/26 06:54:41;;;;;;;8.07;3.83;;;1.70;99.90;;;;;;5019864;28;20211;-90
2021/12/26 06:57:07;;;;;;;5.40;3.80;;;1.70;99.90;;;;;;5020006;28;20387;-91
2021/12/26 06:59:33;;;;;;;7.85;4.00;;;1.70;99.90;;;;;;5037534;28;20400;-89
2021/12/26 07:01:59;;;;;;;6.88;3.78;;;1.70;99.90;;;;;;5053229;28;20213;-90
2021/12/26 07:04:25;;;;;;;4.93;3.17;;;1.70;99.90;;;;;;5037635;28;20167;-91
2021/12/26 07:06:50;;;;;;;7.83;4.17;;;1.60;99.90;;;;;;5020494;28;20269;-91
2021/12/26 07:09:16;;;;;;;5.60;3.70;;;1.60;99.90;;;;;;5019659;28;20182;-91
2021/12/26 07:11:42;;;;;;;4.43;3.67;;;1.60;99.90;;;;;;5020344;28;20466;-90
2021/12/26 07:14:08;;;;;;;9.93;4.87;;;1.60;99.90;;;;;;5019879;28;20178;-91
2021/12/26 07:16:34;;;;;;;7.68;4.50;;;1.60;99.90;;;;;;5019622;28;20226;-90
2021/12/26 07:19:00;;;;;;;6.60;3.60;;;1.60;99.90;;;;;;5037155;28;20190;-91
2021/12/26 07:21:25;;;;;;;8.10;4.47;;;1.60;99.90;;;;;;5020441;28;20207;-91
2021/12/26 07:23:51;;;;;;;6.70;4.67;;;1.60;99.90;;;;;;5022134;28;20198;-89
2021/12/26 07:26:17;;;;;;;6.90;4.50;;;1.60;99.90;;;;;;5022321;28;20718;-90
2021/12/26 07:28:43;;;;;;;5.93;4.28;;;1.60;99.90;;;;;;5058153;28;20519;-91
2021/12/26 07:31:09;;;;;;;6.53;4.43;;;1.60;99.90;;;;;;5056508;28;20206;-89
2021/12/26 07:33:34;;;;;;;8.77;5.13;;;1.60;99.90;;;;;;5031231;28;20178;-89
2021/12/26 07:36:00;;;;;;;6.33;3.97;;;1.60;99.90;;;;;;5030971;28;20230;-91
2021/12/26 07:38:26;;;;;;;10.60;4.90;;;1.60;99.90;;;;;;5051521;28;20398;-90
2021/12/26 07:40:51;;;;;;;5.53;4.40;;;1.60;99.90;;;;;;5019526;28;20210;-90
2021/12/26 07:43:17;;;;;;;8.00;5.00;;;1.60;99.90;;;;;;5040495;28;20170;-90
2021/12/26 07:45:43;;;;;;;11.30;4.80;;;1.60;99.90;;;;;;5046863;28;20843;-91
2021/12/26 07:48:08;;;;;;;11.50;6.87;;;1.50;99.90;;;;;;5038516;28;20277;-90
2021/12/26 07:50:34;;;;;;;12.80;5.90;;;1.50;99.90;;;;;;5020999;28;20215;-90
2021/12/26 07:53:05;;;;;;;9.37;4.43;;;1.50;99.90;;;;;;5018796;28;20644;-91
2021/12/26 07:55:31;;;;;;;6.10;4.15;;;1.50;99.90;;;;;;5018915;28;20491;-89
2021/12/26 07:57:57;;;;;;;8.67;4.53;;;1.50;99.90;;;;;;5036313;28;20257;-89
2021/12/26 08:00:23;;;;;;;3.97;3.57;;;1.50;99.90;;;;;;5036476;28;20406;-89
2021/12/26 08:02:48;;;;;;;7.73;5.27;;;1.40;99.90;;;;;;5051983;28;20667;-92
2021/12/26 08:05:16;;;;;;;6.82;5.45;;;1.40;99.90;;;;;;5051688;28;20209;-89
2021/12/26 08:07:42;;;;;;;13.23;6.63;;;1.40;99.90;;;;;;5018640;28;20183;-89
2021/12/26 08:10:08;;;;;;;9.93;5.93;;;1.40;99.90;;;;;;5018920;28;20202;-89
2021/12/26 08:12:34;;;;;;;10.82;5.28;;;1.40;99.90;;;;;;5036543;28;20171;-90
2021/12/26 08:15:01;;;;;;;6.50;5.07;;;1.40;99.90;;;;;;5018356;28;20303;-90
2021/12/26 08:17:30;;;;;;;10.57;5.30;;;1.40;99.90;;;;;;5019502;28;20398;-88
2021/12/26 08:19:57;;;;;;;9.00;4.93;;;1.40;99.90;;;;;;5029212;28;20207;-90
2021/12/26 08:22:24;;;;;;;7.65;5.07;;;1.40;99.90;;;;;;5066007;28;20209;-91
2021/12/26 08:24:50;;;;;;;6.00;5.10;;;1.30;99.90;;;;;;5018486;28;20202;-89
2021/12/26 08:27:16;;;;;;;7.15;4.75;;;1.30;99.90;;;;;;5018488;28;20289;-91
2021/12/26 08:29:42;;;;;;;5.90;4.03;;;1.30;99.90;;;;;;5037001;28;20186;-91
2021/12/26 08:32:13;;;;;;;8.53;5.13;;;1.30;99.90;;;;;;5035997;28;20509;-91
2021/12/26 08:34:38;;;;;;;6.63;5.10;;;1.30;99.90;;;;;;5018444;28;20245;-90
2021/12/26 08:37:05;;;;;;;6.80;4.50;;;1.30;99.90;;;;;;5018614;28;20187;-89
2021/12/26 08:39:36;;;;;;;6.90;3.95;;;1.30;99.90;;;;;;5017966;28;20186;-91
2021/12/26 08:42:03;;;;;;;8.60;4.20;;;1.30;99.90;;;;;;5018359;28;20186;-91
2021/12/26 08:44:29;;;;;;;6.90;4.57;;;1.30;99.90;;;;;;5051227;28;20187;-91
2021/12/26 08:46:54;;;;;;;6.03;4.73;;;1.30;99.90;;;;;;5018326;28;20185;-91
2021/12/26 08:49:21;;;;;;;8.80;4.23;;;1.30;99.90;;;;;;5050831;28;20178;-90
2021/12/26 08:51:48;;;;;;;6.90;4.70;;;1.30;99.90;;;;;;5035556;28;20238;-89
2021/12/26 08:54:14;;;;;;;7.20;4.70;;;1.30;99.90;;;;;;5050856;28;20178;-91
2021/12/26 08:56:41;;;;;;;10.80;5.00;;;1.30;99.90;;;;;;5050713;28;20695;-90
2021/12/26 08:59:06;;;;;;;8.35;5.05;;;1.30;99.90;;;;;;5035220;28;20174;-89
2021/12/26 09:01:32;;;;;;;9.17;5.60;;;1.30;99.90;;;;;;5035552;28;20203;-89
2021/12/26 09:03:58;;;;;;;8.03;4.40;;;1.30;99.90;;;;;;5035433;28;20396;-90
2021/12/26 09:06:24;;;;;;;8.73;5.30;;;1.30;99.90;;;;;;5050817;28;20778;-90
2021/12/26 09:08:51;;;;;;;6.93;4.93;;;1.30;99.90;;;;;;5050949;28;20189;-92
2021/12/26 09:11:17;;;;;;;6.80;4.60;;;1.30;99.90;;;;;;5050464;28;20249;-89
2021/12/26 09:13:44;;;;;;;6.55;4.28;;;1.30;99.90;;;;;;5034990;28;20632;-90
2021/12/26 09:16:10;;;;;;;4.55;3.35;;;1.30;99.90;;;;;;5051953;28;20237;-88
2021/12/26 09:18:36;;;;;;;4.70;3.60;;;1.30;99.90;;;;;;5055495;28;20556;-89
2021/12/26 09:21:02;;;;;;;4.53;3.40;;;1.30;99.90;;;;;;5053541;28;20430;-91
2021/12/26 09:23:28;;;;;;;4.72;3.72;;;1.30;99.90;;;;;;5048139;28;20414;-89
2021/12/26 09:25:54;;;;;;;7.15;5.40;;;1.30;99.90;;;;;;5053630;28;20241;-90
2021/12/26 09:28:20;;;;;;;5.70;3.73;;;1.30;99.90;;;;;;5033428;28;20186;-92
2021/12/26 09:30:46;;;;;;;7.20;4.60;;;1.30;99.90;;;;;;5059377;28;20210;-91
2021/12/26 09:33:11;;;;;;;7.47;4.80;;;1.30;99.90;;;;;;5071251;28;20182;-90
2021/12/26 09:35:37;;;;;;;10.83;4.77;;;1.30;99.90;;;;;;5035700;28;20502;-90
2021/12/26 09:38:03;;;;;;;7.10;5.00;;;1.30;99.90;;;;;;5033139;28;20170;-90
2021/12/26 09:40:29;;;;;;;8.13;5.40;;;1.30;99.90;;;;;;5022094;28;20304;-91
2021/12/26 09:42:55;;;;;;;9.80;4.10;;;1.30;99.90;;;;;;5050302;28;20387;-89
2021/12/26 09:45:20;;;;;;;6.70;4.20;;;1.30;99.90;;;;;;5034548;28;20206;-91
2021/12/26 09:47:50;;;;;;;7.57;4.83;;;1.30;99.90;;;;;;5050362;28;20419;-90
2021/12/26 09:50:18;;;;;;;10.70;5.28;;;1.20;99.90;;;;;;5034551;28;20210;-90
2021/12/26 09:52:47;;;;;;;7.93;5.25;;;1.20;99.90;;;;;;5050030;28;20222;-90
2021/12/26 09:55:13;;;;;;;8.45;4.95;;;1.30;99.90;;;;;;5049967;28;20253;-92
2021/12/26 09:57:39;;;;;;;6.93;4.60;;;1.30;99.90;;;;;;5050290;28;20654;-90
2021/12/26 10:00:28;;;;;;;5.80;4.15;;;1.30;99.90;;;;;;5050842;28;20651;-89
2021/12/26 10:03:18;;;;;;;4.90;4.10;;;1.30;99.90;;;;;;5054743;28;20185;-89
2021/12/26 10:06:12;;;;;;;9.07;4.70;;;1.30;99.90;;;;;;5054804;28;20257;-91
2021/12/26 10:08:54;;;;;;;7.78;4.88;;;1.30;99.90;;;;;;5056010;28;20262;-89
2021/12/26 10:11:22;;;;;;;6.93;4.20;;;1.30;99.90;;;;;;5053755;28;20256;-90
2021/12/26 10:13:49;;;;;;;6.75;4.82;;;1.30;99.90;;;;;;5038390;28;20257;-90
2021/12/26 10:16:19;;;;;;;6.20;4.53;;;1.30;99.90;;;;;;5053962;28;20245;-91
2021/12/26 10:18:45;;;;;;;9.18;5.72;;;1.30;99.90;;;;;;5054106;28;20179;-91
2021/12/26 10:21:45;;;;;;;6.53;5.18;;;1.30;99.90;;;;;;5054090;28;20202;-89
2021/12/26 10:24:16;;;;;;;8.02;4.90;;;1.30;99.90;;;;;;5006803;28;20191;-90
2021/12/26 10:27:06;;;;;;;7.47;5.07;;;1.30;99.90;;;;;;5021965;28;20214;-91
2021/12/26 10:30:00;;;;;;;9.75;5.38;;;1.30;99.90;;;;;;5056242;28;20222;-89
2021/12/26 10:32:34;;;;;;;7.43;4.75;;;1.30;99.90;;;;;;5017532;28;20202;-90
2021/12/26 10:35:05;;;;;;;9.27;4.97;;;1.40;99.90;;;;;;5020320;28;20285;-89
2021/12/26 10:37:49;;;;;;;8.52;4.90;;;1.40;99.90;;;;;;5053626;28;20224;-91
2021/12/26 10:40:25;;;;;;;8.18;4.35;;;1.40;99.90;;;;;;5020652;28;20301;-90
2021/12/26 10:42:54;;;;;;;9.88;5.30;;;1.40;99.90;;;;;;5038369;28;20163;-91
2021/12/26 10:45:32;;;;;;;8.70;5.30;;;1.40;99.90;;;;;;5022909;28;20571;-90
2021/12/26 10:48:07;;;;;;;9.35;5.22;;;1.40;99.90;;;;;;5037691;28;20217;-89
2021/12/26 10:50:36;;;;;;;9.27;6.18;;;1.40;99.90;;;;;;5037959;28;20202;-91
2021/12/26 10:53:07;;;;;;;9.45;6.47;;;1.40;99.90;;;;;;5034465;28;20238;-89
2021/12/26 10:55:43;;;;;;;10.30;7.25;;;1.40;99.90;;;;;;5017749;28;20261;-89
2021/12/26 10:58:13;;;;;;;8.82;5.75;;;1.40;99.90;;;;;;5016340;28;20193;-90
2021/12/26 11:00:44;;;;;;;9.25;5.68;;;1.40;99.90;;;;;;5000210;28;20293;-89
2021/12/26 11:03:20;;;;;;;8.10;6.43;;;1.40;99.90;;;;;;5017872;28;20629;-89
2021/12/26 11:05:47;;;;;;;8.85;5.18;;;1.50;99.90;;;;;;5000089;28;20290;-89
2021/12/26 11:08:14;;;;;;;10.63;5.50;;;1.50;99.90;;;;;;5025770;28;20180;-90
2021/12/26 11:10:48;;;;;;;5.45;4.50;;;1.50;99.90;;;;;;5010805;28;20203;-88
2021/12/26 11:13:20;;;;;;;8.45;4.90;;;1.50;99.90;;;;;;5000389;28;20184;-89
2021/12/26 11:15:47;;;;;;;7.93;4.40;;;1.50;99.90;;;;;;4999877;28;20322;-90
2021/12/26 11:18:15;;;;;;;8.00;5.82;;;1.50;99.90;;;;;;5000203;28;20266;-89
2021/12/26 11:20:59;;;;;;;10.63;6.13;;;1.50;99.90;;;;;;5000030;28;20209;-89
2021/12/26 11:23:28;;;;;;;14.13;9.80;;;1.50;99.90;;;;;;5017721;28;20163;-89
2021/12/26 11:26:04;;;;;;;10.27;5.75;;;1.50;99.90;;;;;;5000317;28;20293;-91
2021/12/26 11:28:33;;;;;;;12.13;5.88;;;1.50;99.90;;;;;;5002270;28;20182;-89
2021/12/26 11:31:08;;;;;;;7.03;5.30;;;1.50;99.90;;;;;;4999789;28;20200;-91
2021/12/26 11:33:34;;;;;;;9.35;4.95;;;1.60;99.90;;;;;;4999902;28;20273;-91
2021/12/26 11:36:03;;;;;;;7.30;4.90;;;1.50;99.90;;;;;;4999953;28;20238;-90
2021/12/26 11:38:29;;;;;;;10.93;5.90;;;1.50;99.90;;;;;;4999589;28;20211;-91
2021/12/26 11:40:59;;;;;;;7.97;4.55;;;1.50;99.90;;;;;;4999850;28;20290;-91
2021/12/26 11:43:37;;;;;;;7.35;5.53;;;1.50;99.90;;;;;;4999541;28;20180;-90
2021/12/26 11:46:40;;;;;;;10.65;6.72;;;1.60;99.90;;;;;;4999815;28;20199;-91
2021/12/26 11:49:40;;;;;;;12.15;5.78;;;1.60;99.90;;;;;;5001161;28;20558;-90
2021/12/26 11:52:43;;;;;;;10.57;6.90;;;1.60;99.90;;;;;;5026909;28;20241;-89
2021/12/26 11:55:19;;;;;;;8.40;5.90;;;1.60;99.90;;;;;;5021004;28;20746;-91
2021/12/26 11:58:04;;;;;;;7.90;5.60;;;1.50;99.90;;;;;;5038976;28;20187;-90
2021/12/26 12:00:35;;;;;;;9.07;6.28;;;1.60;99.90;;;;;;5030103;28;20281;-91
2021/12/26 12:03:18;;;;;;;7.22;5.53;;;1.60;99.90;;;;;;5033461;28;20193;-91
2021/12/26 12:05:44;;;;;;;8.77;5.25;;;1.60;99.90;;;;;;5037163;28;20202;-89
2021/12/26 12:08:24;;;;;;;10.93;6.83;;;1.60;99.90;;;;;;5033634;28;20179;-91
2021/12/26 12:10:52;;;;;;;7.53;5.38;;;1.60;99.90;;;;;;5036448;28;20435;-89
2021/12/26 12:13:27;;;;;;;8.65;5.90;;;1.70;99.90;;;;;;5036566;28;20182;-89
2021/12/26 12:16:00;;;;;;;9.10;5.80;;;1.70;99.90;;;;;;5022883;28;20222;-88
2021/12/26 12:18:36;;;;;;;30.95;13.73;;;1.70;99.90;;;;;;5020073;28;20185;-90
2021/12/26 12:21:08;;;;;;;19.73;14.65;;;1.70;99.90;;;;;;5018685;28;20592;-91
2021/12/26 12:23:34;;;;;;;12.02;8.68;;;1.70;99.90;;;;;;5017701;28;20182;-89
2021/12/26 12:26:01;;;;;;;12.15;7.85;;;1.70;99.90;;;;;;5018614;28;20210;-91
2021/12/26 12:28:33;;;;;;;7.35;6.00;;;1.70;99.90;;;;;;5035877;28;20166;-91
2021/12/26 12:31:08;;;;;;;7.85;5.35;;;1.80;99.90;;;;;;5018606;28;20364;-91
2021/12/26 12:33:36;;;;;;;6.25;5.38;;;1.80;99.90;;;;;;5035898;28;20182;-90
2021/12/26 12:36:10;;;;;;;5.57;4.70;;;1.80;99.90;;;;;;5018098;28;20230;-90
2021/12/26 12:38:41;;;;;;;5.78;4.40;;;1.80;99.90;;;;;;5018409;28;20185;-91
2021/12/26 12:41:29;;;;;;;7.32;4.63;;;1.80;99.90;;;;;;5035985;28;20199;-91
2021/12/26 12:43:59;;;;;;;9.13;5.05;;;1.80;99.90;;;;;;5010449;28;20186;-90
2021/12/26 12:46:25;;;;;;;8.77;5.47;;;1.80;99.90;;;;;;5033484;28;20198;-89
2021/12/26 12:49:00;;;;;;;4.88;3.80;;;1.80;99.90;;;;;;5022894;28;20556;-90
2021/12/26 12:51:25;;;;;;;7.45;4.00;;;1.80;99.90;;;;;;5018681;28;20233;-91
2021/12/26 12:54:31;;;;;;;6.70;4.23;;;1.80;99.90;;;;;;5018090;28;20276;-89
2021/12/26 12:57:02;;;;;;;8.93;5.97;;;1.80;99.90;;;;;;5018209;28;20208;-89
2021/12/26 12:59:30;;;;;;;6.07;4.55;;;1.80;99.90;;;;;;5017738;28;20174;-91
2021/12/26 13:01:57;;;;;;;9.10;5.90;;;1.80;99.90;;;;;;5017894;28;20237;-90
2021/12/26 13:04:28;;;;;;;6.20;4.82;;;1.80;99.90;;;;;;5017760;28;20175;-91